Time;durP1;ratioP1;P1;durP2;ratioP2;P2;SDS_P1;SDS_P2;PMS_P1;PMS_P2;Temp;Humidity;BMP_temperature;BMP_pressure;BME280_temperature;BME280_humidity;BME280_pressure;Samples;Min_cycle;Max_cycle;Signal;HPM_P1;HPM_P2
2023/04/09 00:02:11;;;;;;;19.00;6.97;;;13.10;79.40;;;;;;5043451;28;20036;-58
2023/04/09 00:04:36;;;;;;;19.55;7.32;;;13.00;79.40;;;;;;5043609;28;20025;-58
2023/04/09 00:07:02;;;;;;;23.70;7.68;;;13.00;79.50;;;;;;5044753;28;20029;-58
2023/04/09 00:09:28;;;;;;;19.65;7.40;;;13.00;79.50;;;;;;5043595;28;20056;-58
2023/04/09 00:11:53;;;;;;;18.90;7.20;;;13.00;80.20;;;;;;5043587;28;20116;-58
2023/04/09 00:14:19;;;;;;;21.88;7.43;;;13.00;79.60;;;;;;5043406;28;20129;-58
2023/04/09 00:16:44;;;;;;;21.90;7.85;;;12.90;79.60;;;;;;5043416;28;20109;-58
2023/04/09 00:19:10;;;;;;;19.25;7.55;;;12.90;79.60;;;;;;5044702;28;20025;-58
2023/04/09 00:21:36;;;;;;;17.58;7.45;;;12.90;79.70;;;;;;5043326;28;20044;-58
2023/04/09 00:24:02;;;;;;;18.30;7.25;;;12.90;79.70;;;;;;5043161;28;20038;-58
2023/04/09 00:26:27;;;;;;;21.77;8.20;;;12.80;79.70;;;;;;5044569;28;20064;-58
2023/04/09 00:28:54;;;;;;;18.75;6.70;;;12.80;79.80;;;;;;5043156;28;20034;-58
2023/04/09 00:31:19;;;;;;;13.20;7.05;;;12.80;79.80;;;;;;5044563;28;20497;-58
2023/04/09 00:33:45;;;;;;;20.02;7.45;;;12.80;79.80;;;;;;5042972;28;20025;-58
2023/04/09 00:36:10;;;;;;;23.90;7.40;;;12.70;79.80;;;;;;5043424;28;20022;-58
2023/04/09 00:38:36;;;;;;;14.30;7.13;;;12.70;79.80;;;;;;5045092;28;20049;-58
2023/04/09 00:41:01;;;;;;;15.57;7.07;;;12.70;80.00;;;;;;5044562;28;20125;-57
2023/04/09 00:43:27;;;;;;;18.58;7.03;;;12.70;80.00;;;;;;5026443;28;20037;-58
2023/04/09 00:45:53;;;;;;;17.55;7.85;;;12.70;79.90;;;;;;5042834;28;20038;-58
2023/04/09 00:48:18;;;;;;;16.13;6.75;;;12.60;79.80;;;;;;5043066;28;20037;-58
2023/04/09 00:50:44;;;;;;;16.95;6.88;;;12.60;79.80;;;;;;5042984;28;20091;-58
2023/04/09 00:53:09;;;;;;;19.25;6.95;;;12.60;79.90;;;;;;5043050;28;20034;-58
2023/04/09 00:55:35;;;;;;;17.42;7.80;;;12.60;80.00;;;;;;5043149;28;20018;-58
2023/04/09 00:58:01;;;;;;;20.83;7.28;;;12.60;79.90;;;;;;5042937;28;20034;-58
2023/04/09 01:00:26;;;;;;;15.55;6.75;;;12.60;79.90;;;;;;5043099;28;20096;-58
2023/04/09 01:02:52;;;;;;;21.92;7.35;;;12.60;79.80;;;;;;5042957;28;20041;-58
2023/04/09 01:05:18;;;;;;;14.65;6.97;;;12.50;80.00;;;;;;5029681;28;20101;-58
2023/04/09 01:08:17;;;;;;;18.30;6.93;;;12.50;80.10;;;;;;5046779;28;20135;-58
2023/04/09 01:11:14;;;;;;;20.90;7.35;;;12.40;80.10;;;;;;5031591;28;20049;-58
2023/04/09 01:14:11;;;;;;;17.25;6.57;;;12.40;80.10;;;;;;5046730;28;20053;-58
2023/04/09 01:16:37;;;;;;;20.73;6.90;;;12.40;80.10;;;;;;5046464;28;20040;-58
2023/04/09 01:19:10;;;;;;;13.63;7.18;;;12.40;80.20;;;;;;5046717;28;20025;-58
2023/04/09 01:21:35;;;;;;;18.42;7.03;;;12.40;80.20;;;;;;5046705;28;20040;-58
2023/04/09 01:28:07;;;;;;;16.52;6.85;;;12.30;80.30;;;;;;5047733;28;20025;-58
2023/04/09 01:30:32;;;;;;;14.18;6.15;;;12.30;80.40;;;;;;5047603;28;20029;-58
2023/04/09 01:32:58;;;;;;;13.18;6.88;;;12.30;80.40;;;;;;5046161;28;20044;-58
2023/04/09 01:35:24;;;;;;;13.43;6.70;;;12.20;80.50;;;;;;5046341;28;20045;-59
2023/04/09 01:37:50;;;;;;;16.02;6.97;;;12.30;80.50;;;;;;5045339;28;20040;-57
2023/04/09 01:44:15;;;;;;;14.10;6.50;;;12.20;80.50;;;;;;5048775;28;20116;-58
2023/04/09 01:46:41;;;;;;;12.55;7.07;;;12.10;80.40;;;;;;5048219;28;20097;-58
2023/04/09 01:49:06;;;;;;;14.82;7.00;;;12.10;80.50;;;;;;5029613;28;20025;-58
2023/04/09 01:51:32;;;;;;;11.75;6.70;;;12.10;80.50;;;;;;5045652;28;20033;-58
2023/04/09 01:53:59;;;;;;;10.32;6.22;;;12.20;80.50;;;;;;5046014;28;20509;-58
2023/04/09 01:56:25;;;;;;;11.70;6.18;;;12.10;80.50;;;;;;5045817;28;20054;-58
2023/04/09 01:58:51;;;;;;;12.50;6.85;;;12.10;80.40;;;;;;5045672;28;20084;-58
2023/04/09 02:01:23;;;;;;;15.75;7.40;;;12.10;80.50;;;;;;5047020;28;20041;-58
2023/04/09 02:03:55;;;;;;;14.93;6.93;;;12.10;80.50;;;;;;5045664;28;20116;-58
2023/04/09 02:06:31;;;;;;;11.48;7.07;;;12.00;80.50;;;;;;5045829;28;20081;-58
2023/04/09 02:08:57;;;;;;;13.15;7.07;;;12.00;80.70;;;;;;5045675;28;20037;-58
2023/04/09 02:11:23;;;;;;;11.48;5.90;;;12.00;80.70;;;;;;5045623;28;20033;-58
2023/04/09 02:17:13;;;;;;;9.85;7.03;;;12.00;80.70;;;;;;5045794;28;20052;-58
2023/04/09 02:19:40;;;;;;;14.15;6.95;;;11.90;80.70;;;;;;5045614;28;20087;-58
2023/04/09 02:22:05;;;;;;;13.88;6.78;;;11.90;80.70;;;;;;5046860;28;20438;-58
2023/04/09 02:28:31;;;;;;;12.85;6.93;;;11.80;80.90;;;;;;5046842;28;20028;-58
2023/04/09 02:30:56;;;;;;;14.70;7.22;;;11.80;80.80;;;;;;5045099;28;20093;-58
2023/04/09 02:33:22;;;;;;;16.00;7.22;;;11.80;81.50;;;;;;5045142;28;20041;-58
2023/04/09 02:35:47;;;;;;;11.13;6.88;;;11.80;80.90;;;;;;5046445;28;20373;-58
2023/04/09 02:38:14;;;;;;;15.75;6.50;;;11.80;81.00;;;;;;5045032;28;20040;-58
2023/04/09 02:40:40;;;;;;;12.18;6.90;;;11.70;80.90;;;;;;5045037;28;20366;-58
2023/04/09 02:43:06;;;;;;;10.68;6.88;;;11.70;80.90;;;;;;5044923;28;20040;-57
2023/04/09 02:45:31;;;;;;;13.20;7.00;;;11.70;81.00;;;;;;5046471;28;20047;-58
2023/04/09 02:47:57;;;;;;;10.82;6.63;;;11.70;81.10;;;;;;5044775;28;20049;-58
2023/04/09 02:50:22;;;;;;;10.90;6.40;;;11.70;81.00;;;;;;5044879;28;20025;-58
2023/04/09 02:52:48;;;;;;;10.57;6.40;;;11.70;81.00;;;;;;5044546;28;20097;-58
2023/04/09 02:55:14;;;;;;;11.32;6.47;;;11.60;81.00;;;;;;5044790;28;20021;-58
2023/04/09 02:57:40;;;;;;;12.80;7.28;;;11.70;81.00;;;;;;5044553;28;20033;-58
2023/04/09 03:00:06;;;;;;;13.45;7.03;;;11.60;81.00;;;;;;5045968;28;20167;-58
2023/04/09 03:02:31;;;;;;;12.70;6.20;;;11.60;81.00;;;;;;5045711;28;20039;-58
2023/04/09 03:04:57;;;;;;;15.32;6.78;;;11.60;80.90;;;;;;5045991;28;20049;-58
2023/04/09 03:07:22;;;;;;;11.68;6.32;;;11.60;81.00;;;;;;5044268;28;20030;-58
2023/04/09 03:09:48;;;;;;;11.27;7.20;;;11.50;81.10;;;;;;5044421;28;20025;-58
2023/04/09 03:12:14;;;;;;;8.13;6.22;;;11.50;81.10;;;;;;5045721;28;20021;-58
2023/04/09 03:14:39;;;;;;;11.13;7.15;;;11.50;81.10;;;;;;5045770;28;20032;-58
2023/04/09 03:17:05;;;;;;;10.15;6.68;;;11.50;81.10;;;;;;5045668;28;20026;-58
2023/04/09 03:19:30;;;;;;;13.70;7.13;;;11.50;81.10;;;;;;5044390;28;20037;-58
2023/04/09 03:21:56;;;;;;;12.02;7.15;;;11.50;81.10;;;;;;5044137;28;20025;-58
2023/04/09 03:24:21;;;;;;;11.48;6.70;;;11.40;81.20;;;;;;5045728;28;20049;-58
2023/04/09 03:26:47;;;;;;;11.48;7.18;;;11.40;81.30;;;;;;5044027;28;20033;-58
2023/04/09 03:29:12;;;;;;;11.40;7.05;;;11.40;81.30;;;;;;5045378;28;20037;-58
2023/04/09 03:31:38;;;;;;;11.95;6.72;;;11.40;81.40;;;;;;5045408;28;20025;-58
2023/04/09 03:34:04;;;;;;;14.20;7.82;;;11.40;81.40;;;;;;5045437;28;20442;-58
2023/04/09 03:36:30;;;;;;;8.82;6.88;;;11.30;81.30;;;;;;5045426;28;20035;-58
2023/04/09 03:38:55;;;;;;;13.75;7.13;;;11.40;81.50;;;;;;5045391;28;20052;-58
2023/04/09 03:41:21;;;;;;;13.85;7.38;;;11.30;81.50;;;;;;5043978;28;20108;-58
2023/04/09 03:43:46;;;;;;;12.60;6.95;;;11.30;81.60;;;;;;5045279;28;20046;-58
2023/04/09 03:46:13;;;;;;;10.88;7.07;;;11.30;81.50;;;;;;5043872;28;20446;-58
2023/04/09 03:48:38;;;;;;;7.82;6.78;;;11.30;81.60;;;;;;5027169;28;20037;-58
2023/04/09 03:51:04;;;;;;;12.70;6.47;;;11.30;81.50;;;;;;5043667;28;20096;-58
2023/04/09 03:53:30;;;;;;;11.43;6.80;;;11.20;81.40;;;;;;5044894;28;20092;-58
2023/04/09 03:55:55;;;;;;;10.10;6.45;;;11.20;81.60;;;;;;5043600;28;20037;-58
2023/04/09 03:58:21;;;;;;;10.52;7.10;;;11.30;81.50;;;;;;5043569;28;20108;-58
2023/04/09 04:00:47;;;;;;;9.57;6.75;;;11.20;81.50;;;;;;5044998;28;20120;-58
2023/04/09 04:03:14;;;;;;;9.80;6.80;;;11.20;81.50;;;;;;5043426;28;20045;-58
2023/04/09 04:05:40;;;;;;;12.38;7.30;;;11.20;81.40;;;;;;5043692;28;20045;-58
2023/04/09 04:08:06;;;;;;;7.70;6.63;;;11.20;81.70;;;;;;5027047;28;20057;-58
2023/04/09 04:10:33;;;;;;;10.20;6.95;;;11.10;81.80;;;;;;5043389;28;20036;-58
2023/04/09 04:12:58;;;;;;;8.50;6.97;;;11.10;81.80;;;;;;5043373;28;20565;-58
2023/04/09 04:15:24;;;;;;;8.43;6.80;;;11.10;81.90;;;;;;5044970;28;20029;-58
2023/04/09 04:17:49;;;;;;;7.82;6.43;;;11.10;81.90;;;;;;5044932;28;20040;-58
2023/04/09 04:20:15;;;;;;;10.20;7.60;;;11.00;82.50;;;;;;5043341;28;20026;-58
2023/04/09 04:22:40;;;;;;;10.18;7.05;;;11.00;81.90;;;;;;5044652;28;20034;-58
2023/04/09 04:25:06;;;;;;;9.30;7.18;;;11.00;81.90;;;;;;5043444;28;20037;-58
2023/04/09 04:27:32;;;;;;;11.13;6.82;;;11.00;81.80;;;;;;5043291;28;20540;-58
2023/04/09 04:29:58;;;;;;;9.93;7.13;;;11.00;81.90;;;;;;5043214;28;20022;-58
2023/04/09 04:32:24;;;;;;;13.18;7.60;;;10.90;81.80;;;;;;5026707;28;20033;-58
2023/04/09 04:34:50;;;;;;;11.50;6.82;;;11.00;82.00;;;;;;5026783;28;20025;-58
2023/04/09 04:37:16;;;;;;;10.82;7.65;;;10.90;82.00;;;;;;5044551;28;20026;-58
2023/04/09 04:39:41;;;;;;;10.23;7.00;;;10.90;82.10;;;;;;5029128;28;20093;-58
2023/04/09 04:42:07;;;;;;;10.05;7.18;;;10.90;82.20;;;;;;5047211;28;20025;-58
2023/04/09 04:44:32;;;;;;;17.52;7.68;;;10.90;82.20;;;;;;5030558;28;20042;-56
2023/04/09 04:46:58;;;;;;;11.63;7.78;;;10.80;82.20;;;;;;5047102;28;20041;-56
2023/04/09 04:49:23;;;;;;;10.63;7.22;;;10.80;82.20;;;;;;5048939;28;20454;-56
2023/04/09 04:51:49;;;;;;;9.73;7.07;;;10.80;82.20;;;;;;5047330;28;20029;-56
2023/04/09 04:54:14;;;;;;;9.07;7.43;;;10.80;82.30;;;;;;5048872;28;20079;-55
2023/04/09 04:56:40;;;;;;;8.30;7.30;;;10.80;82.30;;;;;;5031168;28;20018;-56
2023/04/09 04:59:06;;;;;;;9.05;7.32;;;10.80;82.30;;;;;;5046949;28;20037;-57
2023/04/09 05:01:31;;;;;;;8.02;7.22;;;10.80;82.90;;;;;;5047128;28;20036;-56
2023/04/09 05:03:57;;;;;;;10.05;7.40;;;10.80;82.30;;;;;;5046918;28;20145;-56
2023/04/09 05:06:22;;;;;;;9.63;7.22;;;10.80;82.30;;;;;;5046968;28;20040;-57
2023/04/09 05:08:48;;;;;;;8.18;7.28;;;10.70;82.20;;;;;;5046691;28;20087;-56
2023/04/09 05:11:15;;;;;;;12.70;7.30;;;10.70;82.20;;;;;;5047978;28;20030;-56
2023/04/09 05:13:41;;;;;;;7.97;7.18;;;10.70;82.20;;;;;;5030212;28;20044;-56
2023/04/09 05:16:06;;;;;;;9.45;7.57;;;10.70;82.20;;;;;;5046773;28;20047;-56
2023/04/09 05:18:32;;;;;;;9.38;7.15;;;10.70;82.10;;;;;;5046518;28;20033;-56
2023/04/09 05:20:57;;;;;;;9.18;7.10;;;10.70;82.20;;;;;;5046605;28;20033;-56
2023/04/09 05:23:23;;;;;;;13.68;7.50;;;10.70;82.30;;;;;;5046499;28;20042;-56
2023/04/09 05:25:49;;;;;;;10.13;7.07;;;10.60;82.30;;;;;;5046626;28;20045;-56
2023/04/09 05:28:17;;;;;;;8.13;6.78;;;10.60;82.40;;;;;;5047983;28;20068;-57
2023/04/09 05:30:46;;;;;;;10.75;7.40;;;10.60;82.50;;;;;;5046200;28;20025;-56
2023/04/09 05:33:12;;;;;;;8.98;7.45;;;10.60;82.50;;;;;;5046303;28;20049;-56
2023/04/09 05:35:38;;;;;;;8.88;7.28;;;10.60;82.60;;;;;;5047563;28;20021;-56
2023/04/09 05:38:04;;;;;;;8.23;6.70;;;10.60;82.60;;;;;;5046199;28;20029;-57
2023/04/09 05:40:29;;;;;;;9.90;7.85;;;10.60;82.50;;;;;;5047633;28;20048;-56
2023/04/09 05:42:55;;;;;;;13.23;7.70;;;10.50;82.50;;;;;;5046035;28;20025;-56
2023/04/09 05:45:20;;;;;;;8.45;7.10;;;10.60;82.50;;;;;;5047459;28;20049;-56
2023/04/09 05:47:46;;;;;;;9.15;6.85;;;10.50;82.50;;;;;;5047353;28;20398;-56
2023/04/09 05:50:11;;;;;;;10.32;7.55;;;10.50;82.50;;;;;;5045761;28;20024;-55
2023/04/09 05:52:37;;;;;;;8.27;7.07;;;10.50;82.50;;;;;;5045512;28;20041;-56
2023/04/09 05:55:04;;;;;;;8.35;7.45;;;10.50;82.60;;;;;;5045514;28;20121;-57
2023/04/09 05:57:30;;;;;;;8.68;7.68;;;10.50;82.60;;;;;;5047541;28;20052;-56
2023/04/09 05:59:56;;;;;;;8.85;7.55;;;10.50;82.70;;;;;;5045654;28;20018;-56
2023/04/09 06:02:22;;;;;;;9.05;7.22;;;10.40;82.70;;;;;;5045721;28;20033;-56
2023/04/09 06:04:47;;;;;;;9.15;7.20;;;10.50;82.80;;;;;;5045715;28;20033;-56
2023/04/09 06:07:13;;;;;;;9.32;7.40;;;10.40;82.70;;;;;;5045767;28;20099;-56
2023/04/09 06:09:38;;;;;;;9.52;8.07;;;10.40;82.70;;;;;;5045685;28;20040;-56
2023/04/09 06:12:04;;;;;;;7.85;7.05;;;10.50;82.80;;;;;;5046676;28;20030;-56
2023/04/09 06:14:31;;;;;;;8.35;7.18;;;10.40;82.70;;;;;;5045619;28;20043;-56
2023/04/09 06:16:58;;;;;;;7.82;7.00;;;10.40;82.70;;;;;;5046975;28;20033;-57
2023/04/09 06:19:24;;;;;;;8.98;7.30;;;10.40;82.70;;;;;;5046758;28;20033;-56
2023/04/09 06:21:49;;;;;;;9.77;7.45;;;10.40;82.70;;;;;;5045638;28;20056;-56
2023/04/09 06:24:15;;;;;;;9.10;7.40;;;10.40;82.90;;;;;;5045750;28;20026;-57
2023/04/09 06:26:41;;;;;;;8.63;7.72;;;10.40;82.90;;;;;;5048471;28;20049;-56
2023/04/09 06:29:06;;;;;;;8.18;6.97;;;10.40;82.70;;;;;;5046374;28;20097;-56
2023/04/09 06:31:32;;;;;;;11.70;7.63;;;10.40;82.60;;;;;;5045795;28;20033;-57
2023/04/09 06:33:58;;;;;;;8.52;7.65;;;10.40;83.30;;;;;;5046525;28;20053;-57
2023/04/09 06:36:23;;;;;;;8.55;7.70;;;10.40;82.60;;;;;;5045292;28;20025;-57
2023/04/09 06:38:49;;;;;;;8.68;7.28;;;10.40;82.60;;;;;;5045227;28;20279;-56
2023/04/09 06:41:15;;;;;;;10.57;7.40;;;10.40;82.70;;;;;;5046581;28;20108;-56
2023/04/09 06:43:40;;;;;;;7.85;6.97;;;10.40;82.70;;;;;;5046339;28;20474;-56
2023/04/09 06:46:06;;;;;;;8.02;7.22;;;10.30;82.60;;;;;;5046396;28;20029;-56
2023/04/09 06:48:32;;;;;;;8.02;7.22;;;10.40;83.30;;;;;;5046126;28;20362;-56
2023/04/09 06:50:57;;;;;;;9.05;7.57;;;10.40;82.70;;;;;;5044572;28;20048;-57
2023/04/09 06:53:23;;;;;;;8.45;7.65;;;10.40;82.60;;;;;;5028135;28;20044;-56
2023/04/09 06:55:48;;;;;;;7.65;6.78;;;10.40;82.60;;;;;;5044739;28;20113;-56
2023/04/09 06:58:15;;;;;;;10.32;7.50;;;10.40;83.30;;;;;;5044557;28;20095;-56
2023/04/09 07:00:40;;;;;;;10.10;8.20;;;10.40;83.40;;;;;;5046087;28;20044;-56
2023/04/09 07:03:07;;;;;;;8.45;7.57;;;10.40;82.70;;;;;;5043988;28;20021;-55
2023/04/09 07:05:33;;;;;;;8.52;7.60;;;10.30;82.70;;;;;;5044733;28;20036;-56
2023/04/09 07:07:59;;;;;;;7.97;7.20;;;10.40;82.80;;;;;;5044599;28;20109;-57
2023/04/09 07:10:24;;;;;;;8.95;7.50;;;10.40;82.80;;;;;;5045700;28;20041;-56
2023/04/09 07:12:50;;;;;;;11.82;7.75;;;10.40;82.70;;;;;;5044284;28;20076;-56
2023/04/09 07:15:16;;;;;;;8.25;7.32;;;10.40;82.70;;;;;;5044347;28;20033;-56
2023/04/09 07:17:41;;;;;;;7.88;7.07;;;10.40;82.70;;;;;;5045666;28;20022;-56
2023/04/09 07:20:07;;;;;;;9.07;8.07;;;10.40;82.80;;;;;;5045810;28;20497;-56
2023/04/09 07:22:33;;;;;;;10.02;8.05;;;10.40;82.70;;;;;;5044141;28;20041;-56
2023/04/09 07:24:58;;;;;;;8.02;7.05;;;10.40;82.70;;;;;;5045616;28;20022;-56
2023/04/09 07:27:27;;;;;;;9.02;8.13;;;10.40;82.60;;;;;;5045353;28;20088;-56
2023/04/09 07:29:57;;;;;;;8.65;7.68;;;10.40;82.60;;;;;;5044210;28;20033;-56
2023/04/09 07:32:23;;;;;;;8.65;7.05;;;10.40;82.60;;;;;;5043830;28;20149;-56
2023/04/09 07:34:51;;;;;;;8.73;7.10;;;10.40;82.60;;;;;;5044018;28;20477;-57
2023/04/09 07:37:16;;;;;;;8.77;7.50;;;10.40;83.10;;;;;;5043971;28;20029;-56
2023/04/09 07:39:42;;;;;;;8.75;7.85;;;10.40;82.40;;;;;;5043935;28;20017;-56
2023/04/09 07:42:07;;;;;;;9.18;7.65;;;10.40;82.40;;;;;;5044084;28;20134;-56
2023/04/09 07:44:36;;;;;;;10.38;8.07;;;10.50;82.50;;;;;;5043857;28;20080;-56
2023/04/09 07:47:02;;;;;;;9.57;8.57;;;10.40;82.40;;;;;;5045132;28;20085;-56
2023/04/09 07:49:28;;;;;;;9.85;8.10;;;10.50;82.50;;;;;;5045179;28;20063;-56
2023/04/09 07:51:54;;;;;;;9.35;8.07;;;10.50;82.50;;;;;;5043447;28;20021;-56
2023/04/09 07:54:20;;;;;;;9.15;7.97;;;10.50;82.50;;;;;;5045189;28;20025;-56
2023/04/09 07:56:46;;;;;;;8.27;7.35;;;10.50;82.40;;;;;;5043504;28;20065;-57
2023/04/09 07:59:11;;;;;;;8.52;7.63;;;10.50;82.40;;;;;;5043689;28;20044;-56
2023/04/09 08:01:37;;;;;;;8.80;7.90;;;10.50;82.50;;;;;;5045065;28;20096;-56
2023/04/09 08:04:03;;;;;;;10.45;8.02;;;10.50;82.50;;;;;;5043673;28;20036;-56
2023/04/09 08:06:28;;;;;;;13.23;8.05;;;10.50;82.60;;;;;;5044704;28;20032;-56
2023/04/09 08:08:54;;;;;;;10.38;9.18;;;10.50;82.70;;;;;;5043502;28;20105;-56
2023/04/09 08:11:24;;;;;;;9.57;8.65;;;10.50;82.80;;;;;;5043483;28;20037;-56
2023/04/09 08:13:53;;;;;;;14.55;9.35;;;10.50;82.80;;;;;;5042464;28;20029;-55
2023/04/09 08:16:19;;;;;;;9.70;8.70;;;10.50;82.80;;;;;;5045218;28;20022;-56
2023/04/09 08:18:48;;;;;;;15.27;9.63;;;10.60;82.80;;;;;;5043902;28;20034;-56
2023/04/09 08:21:14;;;;;;;13.82;8.55;;;10.50;82.90;;;;;;5043758;28;20108;-56
2023/04/09 08:23:40;;;;;;;16.98;9.00;;;10.60;82.80;;;;;;5045066;28;20033;-57
2023/04/09 08:26:05;;;;;;;13.68;9.02;;;10.60;82.80;;;;;;5044774;28;20021;-56
2023/04/09 08:28:31;;;;;;;15.93;9.00;;;10.60;82.80;;;;;;5044806;28;20037;-56
2023/04/09 08:30:57;;;;;;;11.98;8.68;;;10.70;82.70;;;;;;5043824;28;20030;-56
2023/04/09 08:33:22;;;;;;;13.43;9.23;;;10.70;82.70;;;;;;5042780;28;20040;-56
2023/04/09 08:35:48;;;;;;;16.58;9.23;;;10.70;82.70;;;;;;5026637;28;20045;-56
2023/04/09 08:38:14;;;;;;;18.02;9.75;;;10.70;82.80;;;;;;5043048;28;20041;-56
2023/04/09 08:40:40;;;;;;;13.25;8.30;;;10.70;82.90;;;;;;5044549;28;20101;-56
2023/04/09 08:43:06;;;;;;;16.40;9.43;;;10.70;82.80;;;;;;5043090;28;20035;-55
2023/04/09 08:45:31;;;;;;;16.52;8.85;;;10.70;82.80;;;;;;5043189;28;20091;-56
2023/04/09 08:47:58;;;;;;;22.80;9.73;;;10.70;82.70;;;;;;5044004;28;20061;-56
2023/04/09 08:50:27;;;;;;;24.67;10.50;;;10.80;82.80;;;;;;5043702;28;20529;-56
2023/04/09 08:52:53;;;;;;;21.25;10.27;;;10.80;83.10;;;;;;5042700;28;20044;-56
2023/04/09 08:55:18;;;;;;;15.23;9.93;;;10.80;83.00;;;;;;5042841;28;20076;-56
2023/04/09 08:57:44;;;;;;;21.40;10.18;;;10.80;83.00;;;;;;5044275;28;20112;-56
2023/04/09 09:00:10;;;;;;;19.90;9.90;;;10.80;83.10;;;;;;5042898;28;20030;-56
2023/04/09 09:02:37;;;;;;;23.15;10.18;;;10.80;83.80;;;;;;5042960;28;20057;-56
2023/04/09 09:05:03;;;;;;;23.63;10.23;;;10.80;83.10;;;;;;5044138;28;20045;-57
2023/04/09 09:07:28;;;;;;;27.48;10.38;;;10.90;83.20;;;;;;5042803;28;20025;-57
2023/04/09 09:09:55;;;;;;;25.00;10.38;;;10.90;83.10;;;;;;5043087;28;20072;-56
2023/04/09 09:12:40;;;;;;;35.10;11.93;;;10.90;83.20;;;;;;5026501;28;20116;-56
2023/04/09 09:15:28;;;;;;;19.02;10.73;;;10.90;83.30;;;;;;5026372;28;20029;-56
2023/04/09 09:17:56;;;;;;;18.98;10.25;;;10.90;83.30;;;;;;5044230;28;20497;-56
2023/04/09 09:20:22;;;;;;;24.25;10.68;;;11.00;83.40;;;;;;5026497;28;20053;-56
2023/04/09 09:22:51;;;;;;;24.15;11.30;;;10.90;84.00;;;;;;5044271;28;20033;-56
2023/04/09 09:25:17;;;;;;;30.25;12.23;;;11.00;83.40;;;;;;5044840;28;20045;-56
2023/04/09 09:27:42;;;;;;;17.08;10.55;;;11.00;83.40;;;;;;5046540;28;20033;-56
2023/04/09 09:30:09;;;;;;;18.70;10.15;;;10.90;83.30;;;;;;5046570;28;20401;-57
2023/04/09 09:32:35;;;;;;;25.15;10.38;;;11.00;83.10;;;;;;5046199;28;20042;-56
2023/04/09 09:35:02;;;;;;;25.70;10.85;;;11.00;83.20;;;;;;5029770;28;20065;-54
2023/04/09 09:37:28;;;;;;;38.92;12.10;;;11.00;83.10;;;;;;5047565;28;20048;-54
2023/04/09 09:39:54;;;;;;;26.05;10.40;;;11.10;83.40;;;;;;5047521;28;20022;-54
2023/04/09 09:42:20;;;;;;;26.85;11.35;;;11.10;83.20;;;;;;5045948;28;20115;-54
2023/04/09 09:44:45;;;;;;;29.30;10.63;;;11.10;83.20;;;;;;5042645;28;20029;-54
2023/04/09 09:47:15;;;;;;;21.00;10.00;;;11.10;83.10;;;;;;5043652;28;20089;-54
2023/04/09 09:49:40;;;;;;;24.20;10.27;;;11.10;83.00;;;;;;5059794;28;20053;-54
2023/04/09 09:52:08;;;;;;;32.92;10.88;;;11.10;82.90;;;;;;5039855;28;20109;-54
2023/04/09 09:54:39;;;;;;;28.60;10.27;;;11.10;82.90;;;;;;5029069;28;20037;-54
2023/04/09 09:57:05;;;;;;;17.15;8.95;;;11.20;83.00;;;;;;5046021;28;20033;-54
2023/04/09 09:59:31;;;;;;;21.17;9.85;;;11.20;82.70;;;;;;5043162;28;20140;-54
2023/04/09 10:02:00;;;;;;;24.52;9.60;;;11.20;82.40;;;;;;5045393;28;20125;-54
2023/04/09 10:04:27;;;;;;;19.90;8.85;;;11.20;82.40;;;;;;5045720;28;20048;-54
2023/04/09 10:06:52;;;;;;;20.92;8.98;;;11.20;82.40;;;;;;5045812;28;20025;-56
2023/04/09 10:09:18;;;;;;;28.35;10.07;;;11.30;82.50;;;;;;5044588;28;20029;-56
2023/04/09 10:11:46;;;;;;;18.73;8.90;;;11.30;82.40;;;;;;5053870;28;20029;-56
2023/04/09 10:14:12;;;;;;;24.88;9.48;;;11.30;82.30;;;;;;5045692;28;20109;-56
2023/04/09 10:16:37;;;;;;;23.75;9.50;;;11.30;82.10;;;;;;5024297;28;20026;-56
2023/04/09 10:19:03;;;;;;;25.17;9.65;;;11.30;82.10;;;;;;5025563;28;20026;-56
2023/04/09 10:21:42;;;;;;;26.25;10.32;;;11.40;82.30;;;;;;5043259;28;20033;-56
2023/04/09 10:24:08;;;;;;;40.80;11.13;;;11.40;82.10;;;;;;5077945;28;20037;-56
2023/04/09 10:26:34;;;;;;;40.35;9.65;;;11.40;82.10;;;;;;5055800;28;20489;-56
2023/04/09 10:29:25;;;;;;;26.60;9.80;;;11.50;82.10;;;;;;5045740;28;20045;-56
2023/04/09 10:32:02;;;;;;;28.88;9.77;;;11.50;81.90;;;;;;5042500;28;20036;-56
2023/04/09 10:34:28;;;;;;;29.33;9.75;;;11.50;81.80;;;;;;5044181;28;20030;-57
2023/04/09 10:36:58;;;;;;;24.10;9.48;;;11.60;81.60;;;;;;5045960;28;20032;-56
2023/04/09 10:39:26;;;;;;;36.30;10.30;;;11.60;81.40;;;;;;5043300;28;20693;-56
2023/04/09 10:41:51;;;;;;;24.80;9.82;;;11.60;81.20;;;;;;5044461;28;20096;-56
2023/04/09 10:44:21;;;;;;;33.30;10.52;;;11.70;81.10;;;;;;5057377;28;20045;-56
2023/04/09 10:46:47;;;;;;;83.03;14.27;;;11.70;81.00;;;;;;5047028;28;20041;-56
2023/04/09 10:49:17;;;;;;;47.92;9.98;;;11.70;80.90;;;;;;5042447;28;20033;-56
2023/04/09 10:52:09;;;;;;;41.08;9.75;;;11.70;80.90;;;;;;5041033;28;20041;-56
2023/04/09 10:54:45;;;;;;;26.38;9.32;;;11.70;80.80;;;;;;5024178;28;20052;-56
2023/04/09 10:57:12;;;;;;;46.28;11.48;;;11.80;80.70;;;;;;5046157;28;20047;-56
2023/04/09 10:59:39;;;;;;;33.05;9.88;;;11.80;80.50;;;;;;5047031;28;20056;-56
2023/04/09 11:05:34;;;;;;;43.95;9.65;;;11.90;80.50;;;;;;5043976;28;20132;-56
2023/04/09 11:08:04;;;;;;;28.92;9.48;;;12.00;80.40;;;;;;5045860;28;20037;-56
2023/04/09 11:10:31;;;;;;;32.70;10.00;;;12.00;80.30;;;;;;5040028;28;20041;-56
2023/04/09 11:12:57;;;;;;;44.63;11.07;;;12.00;80.20;;;;;;5043383;28;20033;-56
2023/04/09 11:15:22;;;;;;;58.42;11.15;;;12.10;80.00;;;;;;5045262;28;20044;-56
2023/04/09 11:17:48;;;;;;;39.38;11.02;;;12.10;79.80;;;;;;5058823;28;20097;-56
2023/04/09 11:20:15;;;;;;;38.17;10.50;;;12.20;79.80;;;;;;5073810;28;20017;-56
2023/04/09 11:22:41;;;;;;;28.45;10.25;;;12.20;79.90;;;;;;5076701;28;20030;-56
2023/04/09 11:28:29;;;;;;;44.33;11.38;;;12.30;80.00;;;;;;5025401;28;20029;-56
2023/04/09 11:30:55;;;;;;;71.05;12.13;;;12.40;79.80;;;;;;5045194;28;20033;-56
2023/04/09 11:33:21;;;;;;;48.70;11.57;;;12.40;79.60;;;;;;5041043;28;20056;-56
2023/04/09 11:35:47;;;;;;;53.38;10.88;;;12.50;80.10;;;;;;5045053;28;20052;-57
2023/04/09 11:38:12;;;;;;;54.45;10.40;;;12.50;78.80;;;;;;5074190;28;20025;-56
2023/04/09 11:40:48;;;;;;;58.35;11.38;;;12.60;79.40;;;;;;5038523;28;20379;-56
2023/04/09 11:43:15;;;;;;;49.55;11.40;;;12.60;79.20;;;;;;5022476;28;20102;-56
2023/04/09 11:45:41;;;;;;;53.95;11.10;;;12.70;79.60;;;;;;5024638;28;20026;-56
2023/04/09 11:48:06;;;;;;;47.60;10.85;;;12.70;78.80;;;;;;5038459;28;20022;-57
2023/04/09 11:50:32;;;;;;;46.22;10.95;;;12.70;78.50;;;;;;5059366;28;20051;-55
2023/04/09 11:52:58;;;;;;;75.00;11.73;;;12.70;78.50;;;;;;5045808;28;20060;-56
2023/04/09 11:55:28;;;;;;;59.28;11.60;;;12.70;78.50;;;;;;5044913;28;20048;-57
2023/04/09 11:57:56;;;;;;;53.50;13.15;;;12.70;78.30;;;;;;5052549;28;20037;-57
2023/04/09 12:00:23;;;;;;;51.17;11.07;;;12.70;77.80;;;;;;5035009;28;20170;-56
2023/04/09 12:02:50;;;;;;;74.63;13.00;;;12.80;77.60;;;;;;5044277;28;20029;-56
2023/04/09 12:05:27;;;;;;;52.00;10.88;;;12.80;77.50;;;;;;5043160;28;20029;-56
2023/04/09 12:08:06;;;;;;;47.65;11.50;;;12.80;77.10;;;;;;5042156;28;20037;-56
2023/04/09 12:10:33;;;;;;;49.78;11.32;;;12.90;76.90;;;;;;5049752;28;20204;-56
2023/04/09 12:13:12;;;;;;;59.78;11.60;;;13.00;77.20;;;;;;5041183;28;20112;-56
2023/04/09 12:15:40;;;;;;;72.63;12.50;;;13.10;76.20;;;;;;5025394;28;20091;-56
2023/04/09 12:18:09;;;;;;;66.28;11.23;;;13.10;75.70;;;;;;5042932;28;20075;-56
2023/04/09 12:20:38;;;;;;;96.13;14.23;;;13.20;75.60;;;;;;5025099;28;20478;-56
2023/04/09 12:23:04;;;;;;;120.32;16.30;;;13.20;75.30;;;;;;5041917;28;20032;-56
2023/04/09 12:25:40;;;;;;;92.55;14.02;;;13.30;75.10;;;;;;5041861;28;20029;-56
2023/04/09 12:28:07;;;;;;;80.93;13.60;;;13.40;74.90;;;;;;5041986;28;20021;-56
2023/04/09 12:30:32;;;;;;;68.30;12.30;;;13.40;74.70;;;;;;5041530;28;20044;-56
2023/04/09 12:32:58;;;;;;;79.35;13.98;;;13.50;75.10;;;;;;5024854;28;20030;-56
2023/04/09 12:35:24;;;;;;;122.38;15.60;;;13.60;74.30;;;;;;5041332;28;20385;-56
2023/04/09 12:37:49;;;;;;;94.38;15.48;;;13.60;74.20;;;;;;5041084;28;20030;-56
2023/04/09 12:40:15;;;;;;;103.78;15.45;;;13.70;74.00;;;;;;5040147;28;20029;-56
2023/04/09 12:42:41;;;;;;;112.13;17.50;;;13.70;73.70;;;;;;5041504;28;20403;-56
2023/04/09 12:45:12;;;;;;;87.07;14.85;;;13.80;73.80;;;;;;5044991;28;20029;-56
2023/04/09 12:47:38;;;;;;;93.72;15.20;;;13.80;73.60;;;;;;5039560;28;20076;-57
2023/04/09 12:50:04;;;;;;;106.05;14.82;;;13.90;73.30;;;;;;5044108;28;20184;-57
2023/04/09 12:52:30;;;;;;;92.65;14.95;;;14.00;72.20;;;;;;5044759;28;20037;-56
2023/04/09 12:54:56;;;;;;;101.38;14.77;;;14.00;73.20;;;;;;5043113;28;20029;-56
2023/04/09 12:57:21;;;;;;;95.00;13.35;;;14.10;72.60;;;;;;5043537;28;20021;-56